Shokyu Maru — JG5288 — position and weather

sailwx.info

Track history (hours):
 
Tides and Currents Weather Stations Pressure Air Temp Water Temp Dewpoint Dewpoint Depression Visibility Wind Speed Wind Dir Waves Ship Positions

Shokyu Maru

Last reported at 2017-May-24 15:27 UTC. Time now 2017-May-24 15:46 UTC.
Position N 35°36' E 139°55'.

Length 91 m; draft 5.3 m.

Type: Ship. MMSI: 431000253.

Date/timePositionNaut miles runAvg speedWind from/ knotsBaromVisibWave heightAir tempDewpointWater temp
2017-May-24 15:27N 35°36' E 139°55'0 0.0
2017-May-24 14:57N 35°36' E 139°55'0 0.1
2017-May-24 14:00N 35°36' E 139°55'0 0.1
2017-May-24 13:30N 35°36' E 139°55'0 0.0
2017-May-24 13:00N 35°36' E 139°55'0 0.0
2017-May-24 12:27N 35°36' E 139°55'0 0.0
2017-May-24 12:00N 35°36' E 139°55'0 0.6
2017-May-24 11:30N 35°36' E 139°55'510.6
2017-May-24 11:00N 35°32' E 139°51'5 9.8
2017-May-24 10:30N 35°28' E 139°47'510.1
2017-May-24 10:00N 35°24' E 139°42'2 4.4
2017-May-24 09:30N 35°24' E 139°40'0 0.0
2017-May-24 09:00N 35°24' E 139°40'0 0.0
2017-May-24 08:30N 35°24' E 139°40'0 0.0
2017-May-24 08:00N 35°24' E 139°40'0 0.0
2017-May-24 07:30N 35°24' E 139°40'0 0.0
2017-May-24 07:00N 35°24' E 139°40'0 0.0
2017-May-24 06:30N 35°24' E 139°40'0 0.0
2017-May-24 06:00N 35°24' E 139°40'0 0.0
2017-May-24 05:30N 35°24' E 139°40'0 0.0
2017-May-24 05:00N 35°24' E 139°40'0 0.0
2017-May-24 04:27N 35°24' E 139°40'0 0.0
2017-May-24 04:00N 35°24' E 139°40'1 2.9
2017-May-24 03:30N 35°24' E 139°41'510.1
2017-May-24 03:01N 35°26' E 139°46'510.0
2017-May-24 02:30N 35°30' E 139°51'5 9.8
2017-May-24 02:01N 35°33' E 139°54'510.2
2017-May-24 01:30N 35°38' E 139°58'3 0.8
2017-May-23 21:44N 35°40' E 139°57'2 7.9
2017-May-23 21:29N 35°39' E 139°58'4 7.9
2017-May-23 21:01N 35°36' E 139°55'0 0.4
2017-May-23 20:27N 35°36' E 139°56'0 0.0
2017-May-23 19:57N 35°36' E 139°56'0 0.0
2017-May-23 19:18N 35°36' E 139°56'0 0.2
2017-May-23 19:00N 35°36' E 139°55'0 0.0
2017-May-23 18:30N 35°36' E 139°55'0 0.0
2017-May-23 17:57N 35°36' E 139°55'0 0.0
2017-May-23 17:27N 35°36' E 139°55'0 0.0
2017-May-23 17:00N 35°36' E 139°55'0 0.1
2017-May-23 16:30N 35°36' E 139°56'0 0.0
2017-May-23 15:57N 35°36' E 139°56'0 0.0
2017-May-23 15:30N 35°36' E 139°56'0 0.0
2017-May-23 15:00N 35°36' E 139°56'0 0.1
2017-May-23 14:30N 35°36' E 139°55'0 0.0
2017-May-23 13:27N 35°36' E 139°55'0 0.0
2017-May-23 13:00N 35°36' E 139°55'0 0.0
2017-May-23 12:27N 35°36' E 139°55'2 4.2
2017-May-23 12:00N 35°35' E 139°54'510.6
2017-May-23 11:30N 35°31' E 139°50'510.2
2017-May-23 11:00N 35°27' E 139°45'510.1
2017-May-23 10:30N 35°23' E 139°41'2 2.7
2017-May-23 09:55N 35°24' E 139°40'0 0.0
2017-May-23 09:25N 35°24' E 139°40'0 0.0
2017-May-23 08:55N 35°24' E 139°40'0 0.0
2017-May-23 08:28N 35°24' E 139°40'0 0.0
2017-May-23 07:58N 35°24' E 139°40'0 0.0
2017-May-23 07:28N 35°24' E 139°40'0 0.0
2017-May-23 06:58N 35°24' E 139°40'0 0.0
2017-May-23 06:28N 35°24' E 139°40'0 0.7
2017-May-23 06:00N 35°24' E 139°40'2 3.9
2017-May-23 05:30N 35°24' E 139°42'5 9.9
2017-May-23 05:00N 35°27' E 139°47'5 9.4
2017-May-23 04:30N 35°30' E 139°51'5 9.3
2017-May-23 04:00N 35°34' E 139°55'5 9.8
2017-May-23 03:30N 35°38' E 139°58'3 0.5
2017-May-22 21:48N 35°40' E 139°56'3 8.1
2017-May-22 21:26N 35°38' E 139°59'3 7.0
2017-May-22 20:57N 35°36' E 139°55'0 0.1
2017-May-22 20:28N 35°36' E 139°55'0 0.0
2017-May-22 20:00N 35°36' E 139°55'0 0.0
2017-May-22 19:29N 35°36' E 139°55'0 0.0
2017-May-22 19:01N 35°36' E 139°55'0 0.0
2017-May-22 18:25N 35°36' E 139°55'0 0.0
2017-May-22 17:56N 35°36' E 139°55'0 0.0
2017-May-22 17:28N 35°36' E 139°55'0 0.0
2017-May-22 16:56N 35°36' E 139°55'0 0.0
2017-May-22 16:26N 35°36' E 139°55'0 0.0
2017-May-22 16:00N 35°36' E 139°55'0 0.0
2017-May-22 15:30N 35°36' E 139°55'0 0.0
2017-May-22 15:00N 35°36' E 139°55'0 0.0
2017-May-22 14:00N 35°36' E 139°55'0 0.0
2017-May-22 13:24N 35°36' E 139°55'0 0.0
2017-May-22 12:57N 35°36' E 139°55'0 0.0
2017-May-22 12:30N 35°36' E 139°55'0 0.0
2017-May-22 11:42N 35°36' E 139°55'0 0.0
2017-May-22 11:30N 35°36' E 139°55'0 0.0
2017-May-22 11:00N 35°36' E 139°55'4 7.2
2017-May-22 10:30N 35°33' E 139°52'510.2
2017-May-22 10:00N 35°30' E 139°47'2 3.3
2017-May-22 09:29N 35°32' E 139°46'0 0.0
2017-May-22 08:59N 35°32' E 139°46'0 0.0
2017-May-22 08:29N 35°32' E 139°46'0 0.0
2017-May-22 07:59N 35°32' E 139°46'0 0.0
2017-May-22 07:26N 35°32' E 139°46'0 0.0
2017-May-22 06:53N 35°32' E 139°46'0 0.0
2017-May-22 06:29N 35°32' E 139°46'0 0.0
2017-May-22 05:59N 35°32' E 139°46'0 0.0
2017-May-22 05:29N 35°32' E 139°46'0 0.0
2017-May-22 04:59N 35°32' E 139°46'0 0.0
2017-May-22 04:29N 35°32' E 139°46'0 0.0
2017-May-22 03:59N 35°32' E 139°46'3 5.5
2017-May-22 03:30N 35°30' E 139°44'2 4.7
2017-May-22 03:00N 35°28' E 139°45'5 9.9
2017-May-22 02:30N 35°30' E 139°50'5 9.8
2017-May-22 02:00N 35°34' E 139°54'510.2
2017-May-22 01:29N 35°38' E 139°58'3 0.8
2017-May-21 21:42N 35°40' E 139°57'2 8.0
2017-May-21 21:30N 35°39' E 139°58'4 7.7
2017-May-21 21:00N 35°36' E 139°55'0 0.5
2017-May-21 20:30N 35°36' E 139°55'0 0.0
2017-May-21 20:00N 35°36' E 139°55'0 0.0
2017-May-21 19:30N 35°36' E 139°55'0 0.0
2017-May-21 19:00N 35°36' E 139°55'0 0.0
2017-May-21 18:30N 35°36' E 139°55'0 0.0
2017-May-21 17:42N 35°36' E 139°55'0 0.0
2017-May-21 17:30N 35°36' E 139°55'0 0.0
2017-May-21 17:00N 35°36' E 139°55'0 0.0
2017-May-21 16:30N 35°36' E 139°55'0 0.0
2017-May-21 16:00N 35°36' E 139°55'0 0.0
2017-May-21 15:30N 35°36' E 139°55'0 0.0
2017-May-21 15:00N 35°36' E 139°55'0 0.0
2017-May-21 14:00N 35°36' E 139°55'0 0.0
2017-May-21 13:30N 35°36' E 139°55'0 0.0
2017-May-21 12:54N 35°36' E 139°55'0 0.0
2017-May-21 12:27N 35°36' E 139°55'0 0.0
2017-May-21 11:51N 35°36' E 139°55'0 0.0
2017-May-21 11:30N 35°36' E 139°55'0 0.6
2017-May-21 11:01N 35°36' E 139°55'510.5
2017-May-21 10:30N 35°32' E 139°51'510.9
2017-May-21 10:00N 35°28' E 139°47'510.7
2017-May-21 09:30N 35°24' E 139°42'2 3.7
2017-May-21 09:00N 35°24' E 139°40'0 0.0
2017-May-21 08:27N 35°24' E 139°40'0 0.0
2017-May-21 08:00N 35°24' E 139°40'0 0.0
2017-May-21 07:30N 35°24' E 139°40'0 0.0
2017-May-21 07:00N 35°24' E 139°40'0 0.0
2017-May-21 06:30N 35°24' E 139°40'0 0.0
2017-May-21 06:00N 35°24' E 139°40'0 0.0
2017-May-21 05:30N 35°24' E 139°40'0 0.0
2017-May-21 05:00N 35°24' E 139°40'0 0.0
2017-May-21 04:30N 35°24' E 139°40'0 0.7
2017-May-21 04:01N 35°24' E 139°39'2 3.5
2017-May-21 03:31N 35°24' E 139°42'510.4
2017-May-21 03:01N 35°27' E 139°47'510.3
2017-May-21 02:31N 35°30' E 139°52'510.4
2017-May-21 02:00N 35°34' E 139°57'510.1
2017-May-21 01:30N 35°38' E 139°58'3 0.7
2017-May-20 21:47N 35°40' E 139°56'2 6.9
2017-May-20 21:30N 35°39' E 139°58'4 7.1
2017-May-20 21:00N 35°36' E 139°55'0 0.4
2017-May-20 20:30N 35°36' E 139°55'0 0.0
2017-May-20 19:54N 35°36' E 139°55'0 0.0
2017-May-20 19:30N 35°36' E 139°55'0 0.0
2017-May-20 18:57N 35°36' E 139°55'0 0.0
2017-May-20 18:30N 35°36' E 139°55'0 0.0
2017-May-20 18:00N 35°36' E 139°55'0 0.1
2017-May-20 17:27N 35°36' E 139°55'0 0.0
2017-May-20 17:00N 35°36' E 139°55'0 0.0
2017-May-20 16:27N 35°36' E 139°55'0 0.0
2017-May-20 15:57N 35°36' E 139°55'0 0.0
2017-May-20 15:27N 35°36' E 139°55'0 0.0
2017-May-20 15:00N 35°36' E 139°55'0 0.0
2017-May-20 14:24N 35°36' E 139°55'0 0.0
2017-May-20 13:30N 35°36' E 139°55'0 0.0
2017-May-20 12:54N 35°36' E 139°55'0 0.0
2017-May-20 12:30N 35°36' E 139°55'0 0.0
2017-May-20 12:00N 35°36' E 139°55'0 0.0
2017-May-20 11:30N 35°36' E 139°55'0 0.0
2017-May-20 11:00N 35°36' E 139°55'0 0.0
2017-May-20 10:24N 35°36' E 139°55'0 0.0
2017-May-20 10:00N 35°36' E 139°55'0 0.0
2017-May-20 09:27N 35°36' E 139°55'0 0.0
2017-May-20 09:00N 35°36' E 139°55'0 0.0
2017-May-20 08:30N 35°36' E 139°55'3 6.2
2017-May-20 08:00N 35°34' E 139°53'611.2
2017-May-20 07:30N 35°30' E 139°49'510.9
2017-May-20 07:00N 35°26' E 139°44'4 7.8
2017-May-20 06:30N 35°24' E 139°40'0 0.2
2017-May-20 05:58N 35°24' E 139°40'0 0.0
2017-May-20 05:28N 35°24' E 139°40'0 0.0
2017-May-20 04:58N 35°24' E 139°40'0 0.0
2017-May-20 04:28N 35°24' E 139°40'0 0.0
2017-May-20 03:58N 35°24' E 139°40'0 0.0
2017-May-20 03:28N 35°24' E 139°40'0 0.0
2017-May-20 02:58N 35°24' E 139°40'0 0.0
2017-May-20 02:28N 35°24' E 139°40'1 2.2
2017-May-20 02:00N 35°24' E 139°40'3 6.0
2017-May-20 01:30N 35°24' E 139°44'0 0.0
2017-May-20 00:57N 35°24' E 139°44'2 3.7
2017-May-20 00:30N 35°25' E 139°43'5 9.9
2017-May-20 00:00N 35°29' E 139°39'0 0.5
2017-May-19 23:28N 35°29' E 139°39'0 0.0
2017-May-19 22:58N 35°29' E 139°39'0 0.0
2017-May-19 22:28N 35°29' E 139°39'0 0.0
2017-May-19 21:58N 35°29' E 139°39'0 0.0
2017-May-19 21:28N 35°29' E 139°39'0 0.0
2017-May-19 20:58N 35°29' E 139°39'0 0.0
2017-May-19 20:28N 35°29' E 139°39'0 0.0
2017-May-19 19:58N 35°29' E 139°39'0 0.0
2017-May-19 19:28N 35°29' E 139°39'0 0.0
2017-May-19 18:58N 35°29' E 139°39'0 0.0
2017-May-19 18:28N 35°29' E 139°39'0 0.0
2017-May-19 17:58N 35°29' E 139°39'0 0.0
2017-May-19 17:28N 35°29' E 139°39'0 0.0
2017-May-19 16:58N 35°29' E 139°39'0 0.0
2017-May-19 16:28N 35°29' E 139°39'0 0.0
2017-May-19 15:58N 35°29' E 139°39'0 0.0
2017-May-19 15:28N 35°29' E 139°39'0 0.0
2017-May-19 14:58N 35°29' E 139°39'0 0.0
2017-May-19 13:58N 35°29' E 139°39'0 0.0
2017-May-19 13:28N 35°29' E 139°39'0 0.0
2017-May-19 12:58N 35°29' E 139°39'0 0.0
2017-May-19 12:28N 35°29' E 139°39'0 0.0
2017-May-19 11:58N 35°29' E 139°39'0 0.0
2017-May-19 11:28N 35°29' E 139°39'0 0.0
2017-May-19 10:58N 35°29' E 139°39'0 0.0
2017-May-19 10:28N 35°29' E 139°39'0 0.0
2017-May-19 09:58N 35°29' E 139°39'0 0.0
2017-May-19 09:28N 35°29' E 139°39'0 0.0
2017-May-19 08:58N 35°29' E 139°39'0 0.0
2017-May-19 08:28N 35°29' E 139°39'0 0.0
2017-May-19 07:58N 35°29' E 139°39'0 0.0
2017-May-19 07:28N 35°29' E 139°39'0 0.0
2017-May-19 06:58N 35°29' E 139°39'0 0.0
2017-May-19 06:25N 35°29' E 139°39'0 0.0
2017-May-19 05:58N 35°29' E 139°39'0 0.6
2017-May-19 05:30N 35°28' E 139°39'4 8.2
2017-May-19 05:01N 35°27' E 139°44'510.8
2017-May-19 04:31N 35°29' E 139°50'610.8
2017-May-19 03:59N 35°33' E 139°55'510.6
2017-May-19 03:30N 35°37' E 139°58'3 0.5
2017-May-18 21:35N 35°40' E 139°57'1 9.9
2017-May-18 21:30N 35°39' E 139°58'3 7.1
2017-May-18 21:00N 35°36' E 139°55'0 0.2
2017-May-18 20:28N 35°36' E 139°55'0 0.0
2017-May-18 19:55N 35°36' E 139°55'0 0.0
2017-May-18 19:28N 35°36' E 139°55'0 0.0
2017-May-18 18:55N 35°36' E 139°55'0 0.0
2017-May-18 18:25N 35°36' E 139°55'0 0.0
2017-May-18 17:31N 35°36' E 139°55'0 0.0
2017-May-18 17:25N 35°36' E 139°55'0 0.0
2017-May-18 16:55N 35°36' E 139°55'0 0.0
2017-May-18 15:49N 35°36' E 139°55'0 0.0
2017-May-18 15:28N 35°36' E 139°55'0 0.0
2017-May-18 14:58N 35°36' E 139°55'0 0.0
2017-May-18 13:55N 35°36' E 139°55'0 0.0
2017-May-18 13:25N 35°36' E 139°55'0 0.0
2017-May-18 12:52N 35°36' E 139°55'0 0.0
2017-May-18 12:28N 35°36' E 139°55'0 0.0
2017-May-18 11:58N 35°36' E 139°55'0 0.0
2017-May-18 11:25N 35°36' E 139°55'0 0.0
2017-May-18 10:58N 35°36' E 139°55'0 0.0
2017-May-18 10:28N 35°36' E 139°55'0 0.0
2017-May-18 09:16N 35°37' E 139°55'0 0.1
2017-May-18 08:22N 35°37' E 139°55'0 0.2
2017-May-18 07:56N 35°36' E 139°55'3 6.8
2017-May-18 07:31N 35°34' E 139°53'510.0
2017-May-18 07:00N 35°30' E 139°49'5 9.6
2017-May-18 06:31N 35°27' E 139°45'5 9.6
2017-May-18 06:00N 35°23' E 139°41'2 3.0
2017-May-18 05:28N 35°24' E 139°40'0 0.0
2017-May-18 04:58N 35°24' E 139°40'0 0.0
2017-May-18 04:28N 35°24' E 139°40'0 0.0
2017-May-18 03:58N 35°24' E 139°40'0 0.0
2017-May-18 03:28N 35°24' E 139°40'0 0.0
2017-May-18 02:58N 35°24' E 139°40'0 0.0
2017-May-18 02:28N 35°24' E 139°40'0 0.0
2017-May-18 01:58N 35°24' E 139°40'0 0.0
2017-May-18 01:25N 35°24' E 139°40'0 0.0
2017-May-18 00:58N 35°24' E 139°40'0 0.0
2017-May-18 00:28N 35°24' E 139°40'0 0.0
2017-May-17 23:58N 35°24' E 139°40'0 0.3
2017-May-17 23:31N 35°24' E 139°39'2 3.5
2017-May-17 23:01N 35°24' E 139°41'611.9
2017-May-17 22:31N 35°27' E 139°47'611.6
2017-May-17 22:01N 35°30' E 139°53'4 3.9
2017-May-17 20:52N 35°31' E 139°59'0 0.1
2017-May-17 20:16N 35°31' E 139°59'0 0.1
2017-May-17 19:34N 35°31' E 139°59'0 0.0
2017-May-17 19:22N 35°31' E 139°59'0 0.0
2017-May-17 18:58N 35°31' E 139°59'0 0.0
2017-May-17 18:28N 35°31' E 139°59'0 0.0
2017-May-17 17:31N 35°31' E 139°59'0 0.0
2017-May-17 17:28N 35°31' E 139°59'0 0.0
2017-May-17 16:58N 35°31' E 139°59'0 0.3
2017-May-17 16:30N 35°31' E 139°59'3 5.8
2017-May-17 15:59N 35°31' E 140°02'0 0.0
2017-May-17 06:35N 35°31' E 140°02'0 0.0
2017-May-17 06:30N 35°31' E 140°02'0 0.0
2017-May-17 06:00N 35°31' E 140°02'1 3.0
2017-May-17 05:30N 35°32' E 140°01'0 0.3
2017-May-17 04:49N 35°32' E 140°01'0 0.0
2017-May-17 03:52N 35°32' E 140°01'0 0.0
2017-May-17 03:16N 35°32' E 140°01'0 0.0
2017-May-17 02:58N 35°32' E 140°01'0 0.0
2017-May-17 02:10N 35°32' E 140°01'0 0.0
2017-May-17 01:52N 35°32' E 140°01'0 0.0
2017-May-17 01:19N 35°32' E 140°01'0 0.0
2017-May-17 00:55N 35°32' E 140°01'0 0.0
2017-May-17 00:28N 35°32' E 140°01'0 0.0
2017-May-16 23:43N 35°32' E 140°01'0 0.0
2017-May-16 23:28N 35°32' E 140°01'0 0.0
2017-May-16 22:52N 35°32' E 140°01'0 0.0
2017-May-16 22:28N 35°32' E 140°01'0 0.0
2017-May-16 21:58N 35°32' E 140°01'0 0.0
2017-May-16 21:25N 35°32' E 140°01'0 0.0
2017-May-16 20:58N 35°32' E 140°01'0 0.0
2017-May-16 20:25N 35°32' E 140°01'0 0.0
2017-May-16 17:58N 35°32' E 140°01'0 0.0
2017-May-16 17:28N 35°32' E 140°01'0 0.0
2017-May-16 16:58N 35°32' E 140°01'0 0.0
2017-May-16 16:28N 35°32' E 140°01'0 0.0
2017-May-16 15:55N 35°32' E 140°01'0 0.0
2017-May-16 15:28N 35°32' E 140°01'0 0.0
2017-May-16 14:58N 35°32' E 140°01'1 1.7
2017-May-16 14:30N 35°31' E 139°60'1010.0
2017-May-16 13:30N 35°30' E 139°48'2 3.7
2017-May-16 12:56N 35°32' E 139°46'0 0.0
2017-May-16 12:29N 35°32' E 139°46'0 0.0
2017-May-16 11:59N 35°32' E 139°46'0 0.0
2017-May-16 11:26N 35°32' E 139°46'0 0.0
2017-May-16 10:59N 35°32' E 139°46'0 0.0
2017-May-16 10:29N 35°32' E 139°46'0 0.0
2017-May-16 09:59N 35°32' E 139°46'0 0.0
2017-May-16 09:29N 35°32' E 139°46'0 0.0
2017-May-16 08:59N 35°32' E 139°46'0 0.0
2017-May-16 08:29N 35°32' E 139°46'0 0.0
2017-May-16 07:59N 35°32' E 139°46'0 0.0
2017-May-16 07:29N 35°32' E 139°46'3 6.4
2017-May-16 07:00N 35°29' E 139°43'3 5.5
2017-May-16 06:30N 35°28' E 139°46'3 5.6
2017-May-16 06:00N 35°29' E 139°49'0 0.0
2017-May-16 05:30N 35°29' E 139°49'0 0.1
2017-May-16 05:00N 35°29' E 139°49'0 0.2
2017-May-16 04:31N 35°29' E 139°49'510.5
2017-May-16 04:01N 35°32' E 139°54'510.6
2017-May-16 03:30N 35°36' E 139°58'4 0.7
2017-May-15 21:37N 35°40' E 139°57'1 7.0
2017-May-15 21:30N 35°40' E 139°57'4 7.1
2017-May-15 21:00N 35°37' E 139°56'0 0.8
2017-May-15 20:28N 35°36' E 139°55'0 0.0
2017-May-15 19:58N 35°36' E 139°55'0 0.0
2017-May-15 19:28N 35°36' E 139°55'0 0.0
2017-May-15 18:52N 35°36' E 139°55'0 0.0
2017-May-15 18:28N 35°36' E 139°55'0 0.0
2017-May-15 17:55N 35°36' E 139°55'0 0.1
2017-May-15 17:28N 35°36' E 139°55'0 0.0
2017-May-15 16:55N 35°36' E 139°55'0 0.0
2017-May-15 16:28N 35°36' E 139°55'0 0.0
2017-May-15 15:52N 35°36' E 139°55'0 0.1
2017-May-15 15:28N 35°36' E 139°55'0 0.2
2017-May-15 14:59N 35°36' E 139°55'10 9.9
2017-May-15 14:00N 35°29' E 139°48'510.4
2017-May-15 13:30N 35°25' E 139°43'3 6.3
2017-May-15 13:00N 35°24' E 139°39'0 0.1
2017-May-15 12:30N 35°24' E 139°40'0 0.0
2017-May-15 12:00N 35°24' E 139°40'0 0.0
2017-May-15 11:30N 35°24' E 139°40'0 0.0
2017-May-15 11:00N 35°24' E 139°40'0 0.0
2017-May-15 10:30N 35°24' E 139°40'0 0.0
2017-May-15 10:00N 35°24' E 139°40'0 0.0
2017-May-15 09:30N 35°24' E 139°40'0 0.0
2017-May-15 09:00N 35°24' E 139°40'0 0.0
2017-May-15 08:30N 35°24' E 139°40'0 0.0
2017-May-15 08:00N 35°24' E 139°40'0 0.0
2017-May-15 07:30N 35°24' E 139°40'0 0.0
2017-May-15 07:00N 35°24' E 139°40'1 2.7
2017-May-15 06:30N 35°23' E 139°40'0 0.6
2017-May-15 06:00N 35°23' E 139°41'0 0.0
2017-May-15 05:30N 35°23' E 139°41'0 0.0
2017-May-15 05:00N 35°23' E 139°41'2 3.0
2017-May-15 04:30N 35°24' E 139°42'510.4
2017-May-15 04:00N 35°27' E 139°47'511.0
2017-May-15 03:30N 35°31' E 139°52'611.2
2017-May-15 03:00N 35°35' E 139°56'5 0.9
2017-May-14 21:41N 35°40' E 139°57'2 8.0
2017-May-14 21:30N 35°39' E 139°58'4 7.3
2017-May-14 21:00N 35°37' E 139°55'0 0.4
2017-May-14 20:29N 35°36' E 139°55'0 0.0
2017-May-14 19:56N 35°36' E 139°55'0 0.0
2017-May-14 19:20N 35°36' E 139°55'0 0.0
2017-May-14 18:59N 35°36' E 139°55'0 0.0
2017-May-14 18:29N 35°36' E 139°55'0 0.0
2017-May-14 17:32N 35°36' E 139°55'0 0.0
2017-May-14 17:29N 35°36' E 139°55'0 0.0
2017-May-14 16:20N 35°36' E 139°55'0 0.0
2017-May-14 15:50N 35°36' E 139°55'  
Track history (hours):
 
Tides and Currents Weather Stations Pressure Air Temp Water Temp Dewpoint Dewpoint Depression Visibility Wind Speed Wind Dir Waves Ship Positions

Shokyu Maru

Last reported at 2017-May-24 15:27 UTC. Time now 2017-May-24 15:46 UTC.
Position N 35°36' E 139°55'.

Length 91 m; draft 5.3 m.

Type: Ship. MMSI: 431000253.

Date/timePositionNaut miles runAvg speedWind from/ knotsBaromVisibWave heightAir tempDewpointWater temp
2017-May-24 15:27N 35°36' E 139°55'0 0.0
2017-May-24 14:57N 35°36' E 139°55'0 0.1
2017-May-24 14:00N 35°36' E 139°55'0 0.1
2017-May-24 13:30N 35°36' E 139°55'0 0.0
2017-May-24 13:00N 35°36' E 139°55'0 0.0
2017-May-24 12:27N 35°36' E 139°55'0 0.0
2017-May-24 12:00N 35°36' E 139°55'0 0.6
2017-May-24 11:30N 35°36' E 139°55'510.6
2017-May-24 11:00N 35°32' E 139°51'5 9.8
2017-May-24 10:30N 35°28' E 139°47'510.1
2017-May-24 10:00N 35°24' E 139°42'2 4.4
2017-May-24 09:30N 35°24' E 139°40'0 0.0
2017-May-24 09:00N 35°24' E 139°40'0 0.0
2017-May-24 08:30N 35°24' E 139°40'0 0.0
2017-May-24 08:00N 35°24' E 139°40'0 0.0
2017-May-24 07:30N 35°24' E 139°40'0 0.0
2017-May-24 07:00N 35°24' E 139°40'0 0.0
2017-May-24 06:30N 35°24' E 139°40'0 0.0
2017-May-24 06:00N 35°24' E 139°40'0 0.0
2017-May-24 05:30N 35°24' E 139°40'0 0.0
2017-May-24 05:00N 35°24' E 139°40'0 0.0
2017-May-24 04:27N 35°24' E 139°40'0 0.0
2017-May-24 04:00N 35°24' E 139°40'1 2.9
2017-May-24 03:30N 35°24' E 139°41'510.1
2017-May-24 03:01N 35°26' E 139°46'510.0
2017-May-24 02:30N 35°30' E 139°51'5 9.8
2017-May-24 02:01N 35°33' E 139°54'510.2
2017-May-24 01:30N 35°38' E 139°58'3 0.8
2017-May-23 21:44N 35°40' E 139°57'2 7.9
2017-May-23 21:29N 35°39' E 139°58'4 7.9
2017-May-23 21:01N 35°36' E 139°55'0 0.4
2017-May-23 20:27N 35°36' E 139°56'0 0.0
2017-May-23 19:57N 35°36' E 139°56'0 0.0
2017-May-23 19:18N 35°36' E 139°56'0 0.2
2017-May-23 19:00N 35°36' E 139°55'0 0.0
2017-May-23 18:30N 35°36' E 139°55'0 0.0
2017-May-23 17:57N 35°36' E 139°55'0 0.0
2017-May-23 17:27N 35°36' E 139°55'0 0.0
2017-May-23 17:00N 35°36' E 139°55'0 0.1
2017-May-23 16:30N 35°36' E 139°56'0 0.0
2017-May-23 15:57N 35°36' E 139°56'0 0.0
2017-May-23 15:30N 35°36' E 139°56'0 0.0
2017-May-23 15:00N 35°36' E 139°56'0 0.1
2017-May-23 14:30N 35°36' E 139°55'0 0.0
2017-May-23 13:27N 35°36' E 139°55'0 0.0
2017-May-23 13:00N 35°36' E 139°55'0 0.0
2017-May-23 12:27N 35°36' E 139°55'2 4.2
2017-May-23 12:00N 35°35' E 139°54'510.6
2017-May-23 11:30N 35°31' E 139°50'510.2
2017-May-23 11:00N 35°27' E 139°45'510.1
2017-May-23 10:30N 35°23' E 139°41'2 2.7
2017-May-23 09:55N 35°24' E 139°40'0 0.0
2017-May-23 09:25N 35°24' E 139°40'0 0.0
2017-May-23 08:55N 35°24' E 139°40'0 0.0
2017-May-23 08:28N 35°24' E 139°40'0 0.0
2017-May-23 07:58N 35°24' E 139°40'0 0.0
2017-May-23 07:28N 35°24' E 139°40'0 0.0
2017-May-23 06:58N 35°24' E 139°40'0 0.0
2017-May-23 06:28N 35°24' E 139°40'0 0.7
2017-May-23 06:00N 35°24' E 139°40'2 3.9
2017-May-23 05:30N 35°24' E 139°42'5 9.9
2017-May-23 05:00N 35°27' E 139°47'5 9.4
2017-May-23 04:30N 35°30' E 139°51'5 9.3
2017-May-23 04:00N 35°34' E 139°55'5 9.8
2017-May-23 03:30N 35°38' E 139°58'3 0.5
2017-May-22 21:48N 35°40' E 139°56'3 8.1
2017-May-22 21:26N 35°38' E 139°59'3 7.0
2017-May-22 20:57N 35°36' E 139°55'0 0.1
2017-May-22 20:28N 35°36' E 139°55'0 0.0
2017-May-22 20:00N 35°36' E 139°55'0 0.0
2017-May-22 19:29N 35°36' E 139°55'0 0.0
2017-May-22 19:01N 35°36' E 139°55'0 0.0
2017-May-22 18:25N 35°36' E 139°55'0 0.0
2017-May-22 17:56N 35°36' E 139°55'0 0.0
2017-May-22 17:28N 35°36' E 139°55'0 0.0
2017-May-22 16:56N 35°36' E 139°55'0 0.0
2017-May-22 16:26N 35°36' E 139°55'0 0.0
2017-May-22 16:00N 35°36' E 139°55'0 0.0
2017-May-22 15:30N 35°36' E 139°55'0 0.0
2017-May-22 15:00N 35°36' E 139°55'0 0.0
2017-May-22 14:00N 35°36' E 139°55'0 0.0
2017-May-22 13:24N 35°36' E 139°55'0 0.0
2017-May-22 12:57N 35°36' E 139°55'0 0.0
2017-May-22 12:30N 35°36' E 139°55'0 0.0
2017-May-22 11:42N 35°36' E 139°55'0 0.0
2017-May-22 11:30N 35°36' E 139°55'0 0.0
2017-May-22 11:00N 35°36' E 139°55'4 7.2
2017-May-22 10:30N 35°33' E 139°52'510.2
2017-May-22 10:00N 35°30' E 139°47'2 3.3
2017-May-22 09:29N 35°32' E 139°46'0 0.0
2017-May-22 08:59N 35°32' E 139°46'0 0.0
2017-May-22 08:29N 35°32' E 139°46'0 0.0
2017-May-22 07:59N 35°32' E 139°46'0 0.0
2017-May-22 07:26N 35°32' E 139°46'0 0.0
2017-May-22 06:53N 35°32' E 139°46'0 0.0
2017-May-22 06:29N 35°32' E 139°46'0 0.0
2017-May-22 05:59N 35°32' E 139°46'0 0.0
2017-May-22 05:29N 35°32' E 139°46'0 0.0
2017-May-22 04:59N 35°32' E 139°46'0 0.0
2017-May-22 04:29N 35°32' E 139°46'0 0.0
2017-May-22 03:59N 35°32' E 139°46'3 5.5
2017-May-22 03:30N 35°30' E 139°44'2 4.7
2017-May-22 03:00N 35°28' E 139°45'5 9.9
2017-May-22 02:30N 35°30' E 139°50'5 9.8
2017-May-22 02:00N 35°34' E 139°54'510.2
2017-May-22 01:29N 35°38' E 139°58'3 0.8
2017-May-21 21:42N 35°40' E 139°57'2 8.0
2017-May-21 21:30N 35°39' E 139°58'4 7.7
2017-May-21 21:00N 35°36' E 139°55'0 0.5
2017-May-21 20:30N 35°36' E 139°55'0 0.0
2017-May-21 20:00N 35°36' E 139°55'0 0.0
2017-May-21 19:30N 35°36' E 139°55'0 0.0
2017-May-21 19:00N 35°36' E 139°55'0 0.0
2017-May-21 18:30N 35°36' E 139°55'0 0.0
2017-May-21 17:42N 35°36' E 139°55'0 0.0
2017-May-21 17:30N 35°36' E 139°55'0 0.0
2017-May-21 17:00N 35°36' E 139°55'0 0.0
2017-May-21 16:30N 35°36' E 139°55'0 0.0
2017-May-21 16:00N 35°36' E 139°55'0 0.0
2017-May-21 15:30N 35°36' E 139°55'0 0.0
2017-May-21 15:00N 35°36' E 139°55'0 0.0
2017-May-21 14:00N 35°36' E 139°55'0 0.0
2017-May-21 13:30N 35°36' E 139°55'0 0.0
2017-May-21 12:54N 35°36' E 139°55'0 0.0
2017-May-21 12:27N 35°36' E 139°55'0 0.0
2017-May-21 11:51N 35°36' E 139°55'0 0.0
2017-May-21 11:30N 35°36' E 139°55'0 0.6
2017-May-21 11:01N 35°36' E 139°55'510.5
2017-May-21 10:30N 35°32' E 139°51'510.9
2017-May-21 10:00N 35°28' E 139°47'510.7
2017-May-21 09:30N 35°24' E 139°42'2 3.7
2017-May-21 09:00N 35°24' E 139°40'0 0.0
2017-May-21 08:27N 35°24' E 139°40'0 0.0
2017-May-21 08:00N 35°24' E 139°40'0 0.0
2017-May-21 07:30N 35°24' E 139°40'0 0.0
2017-May-21 07:00N 35°24' E 139°40'0 0.0
2017-May-21 06:30N 35°24' E 139°40'0 0.0
2017-May-21 06:00N 35°24' E 139°40'0 0.0
2017-May-21 05:30N 35°24' E 139°40'0 0.0
2017-May-21 05:00N 35°24' E 139°40'0 0.0
2017-May-21 04:30N 35°24' E 139°40'0 0.7
2017-May-21 04:01N 35°24' E 139°39'2 3.5
2017-May-21 03:31N 35°24' E 139°42'510.4
2017-May-21 03:01N 35°27' E 139°47'510.3
2017-May-21 02:31N 35°30' E 139°52'510.4
2017-May-21 02:00N 35°34' E 139°57'510.1
2017-May-21 01:30N 35°38' E 139°58'3 0.7
2017-May-20 21:47N 35°40' E 139°56'2 6.9
2017-May-20 21:30N 35°39' E 139°58'4 7.1
2017-May-20 21:00N 35°36' E 139°55'0 0.4
2017-May-20 20:30N 35°36' E 139°55'0 0.0
2017-May-20 19:54N 35°36' E 139°55'0 0.0
2017-May-20 19:30N 35°36' E 139°55'0 0.0
2017-May-20 18:57N 35°36' E 139°55'0 0.0
2017-May-20 18:30N 35°36' E 139°55'0 0.0
2017-May-20 18:00N 35°36' E 139°55'0 0.1
2017-May-20 17:27N 35°36' E 139°55'0 0.0
2017-May-20 17:00N 35°36' E 139°55'0 0.0
2017-May-20 16:27N 35°36' E 139°55'0 0.0
2017-May-20 15:57N 35°36' E 139°55'0 0.0
2017-May-20 15:27N 35°36' E 139°55'0 0.0
2017-May-20 15:00N 35°36' E 139°55'0 0.0
2017-May-20 14:24N 35°36' E 139°55'0 0.0
2017-May-20 13:30N 35°36' E 139°55'0 0.0
2017-May-20 12:54N 35°36' E 139°55'0 0.0
2017-May-20 12:30N 35°36' E 139°55'0 0.0
2017-May-20 12:00N 35°36' E 139°55'0 0.0
2017-May-20 11:30N 35°36' E 139°55'0 0.0
2017-May-20 11:00N 35°36' E 139°55'0 0.0
2017-May-20 10:24N 35°36' E 139°55'0 0.0
2017-May-20 10:00N 35°36' E 139°55'0 0.0
2017-May-20 09:27N 35°36' E 139°55'0 0.0
2017-May-20 09:00N 35°36' E 139°55'0 0.0
2017-May-20 08:30N 35°36' E 139°55'3 6.2
2017-May-20 08:00N 35°34' E 139°53'611.2
2017-May-20 07:30N 35°30' E 139°49'510.9
2017-May-20 07:00N 35°26' E 139°44'4 7.8
2017-May-20 06:30N 35°24' E 139°40'0 0.2
2017-May-20 05:58N 35°24' E 139°40'0 0.0
2017-May-20 05:28N 35°24' E 139°40'0 0.0
2017-May-20 04:58N 35°24' E 139°40'0 0.0
2017-May-20 04:28N 35°24' E 139°40'0 0.0
2017-May-20 03:58N 35°24' E 139°40'0 0.0
2017-May-20 03:28N 35°24' E 139°40'0 0.0
2017-May-20 02:58N 35°24' E 139°40'0 0.0
2017-May-20 02:28N 35°24' E 139°40'1 2.2
2017-May-20 02:00N 35°24' E 139°40'3 6.0
2017-May-20 01:30N 35°24' E 139°44'0 0.0
2017-May-20 00:57N 35°24' E 139°44'2 3.7
2017-May-20 00:30N 35°25' E 139°43'5 9.9
2017-May-20 00:00N 35°29' E 139°39'0 0.5
2017-May-19 23:28N 35°29' E 139°39'0 0.0
2017-May-19 22:58N 35°29' E 139°39'0 0.0
2017-May-19 22:28N 35°29' E 139°39'0 0.0
2017-May-19 21:58N 35°29' E 139°39'0 0.0
2017-May-19 21:28N 35°29' E 139°39'0 0.0
2017-May-19 20:58N 35°29' E 139°39'0 0.0
2017-May-19 20:28N 35°29' E 139°39'0 0.0
2017-May-19 19:58N 35°29' E 139°39'0 0.0
2017-May-19 19:28N 35°29' E 139°39'0 0.0
2017-May-19 18:58N 35°29' E 139°39'0 0.0
2017-May-19 18:28N 35°29' E 139°39'0 0.0
2017-May-19 17:58N 35°29' E 139°39'0 0.0
2017-May-19 17:28N 35°29' E 139°39'0 0.0
2017-May-19 16:58N 35°29' E 139°39'0 0.0
2017-May-19 16:28N 35°29' E 139°39'0 0.0
2017-May-19 15:58N 35°29' E 139°39'0 0.0
2017-May-19 15:28N 35°29' E 139°39'0 0.0
2017-May-19 14:58N 35°29' E 139°39'0 0.0
2017-May-19 13:58N 35°29' E 139°39'0 0.0
2017-May-19 13:28N 35°29' E 139°39'0 0.0
2017-May-19 12:58N 35°29' E 139°39'0 0.0
2017-May-19 12:28N 35°29' E 139°39'0 0.0
2017-May-19 11:58N 35°29' E 139°39'0 0.0
2017-May-19 11:28N 35°29' E 139°39'0 0.0
2017-May-19 10:58N 35°29' E 139°39'0 0.0
2017-May-19 10:28N 35°29' E 139°39'0 0.0
2017-May-19 09:58N 35°29' E 139°39'0 0.0
2017-May-19 09:28N 35°29' E 139°39'0 0.0
2017-May-19 08:58N 35°29' E 139°39'0 0.0
2017-May-19 08:28N 35°29' E 139°39'0 0.0
2017-May-19 07:58N 35°29' E 139°39'0 0.0
2017-May-19 07:28N 35°29' E 139°39'0 0.0
2017-May-19 06:58N 35°29' E 139°39'0 0.0
2017-May-19 06:25N 35°29' E 139°39'0 0.0
2017-May-19 05:58N 35°29' E 139°39'0 0.6
2017-May-19 05:30N 35°28' E 139°39'4 8.2
2017-May-19 05:01N 35°27' E 139°44'510.8
2017-May-19 04:31N 35°29' E 139°50'610.8
2017-May-19 03:59N 35°33' E 139°55'510.6
2017-May-19 03:30N 35°37' E 139°58'3 0.5
2017-May-18 21:35N 35°40' E 139°57'1 9.9
2017-May-18 21:30N 35°39' E 139°58'3 7.1
2017-May-18 21:00N 35°36' E 139°55'0 0.2
2017-May-18 20:28N 35°36' E 139°55'0 0.0
2017-May-18 19:55N 35°36' E 139°55'0 0.0
2017-May-18 19:28N 35°36' E 139°55'0 0.0
2017-May-18 18:55N 35°36' E 139°55'0 0.0
2017-May-18 18:25N 35°36' E 139°55'0 0.0
2017-May-18 17:31N 35°36' E 139°55'0 0.0
2017-May-18 17:25N 35°36' E 139°55'0 0.0
2017-May-18 16:55N 35°36' E 139°55'0 0.0
2017-May-18 15:49N 35°36' E 139°55'0 0.0
2017-May-18 15:28N 35°36' E 139°55'0 0.0
2017-May-18 14:58N 35°36' E 139°55'0 0.0
2017-May-18 13:55N 35°36' E 139°55'0 0.0
2017-May-18 13:25N 35°36' E 139°55'0 0.0
2017-May-18 12:52N 35°36' E 139°55'0 0.0
2017-May-18 12:28N 35°36' E 139°55'0 0.0
2017-May-18 11:58N 35°36' E 139°55'0 0.0
2017-May-18 11:25N 35°36' E 139°55'0 0.0
2017-May-18 10:58N 35°36' E 139°55'0 0.0
2017-May-18 10:28N 35°36' E 139°55'0 0.0
2017-May-18 09:16N 35°37' E 139°55'0 0.1
2017-May-18 08:22N 35°37' E 139°55'0 0.2
2017-May-18 07:56N 35°36' E 139°55'3 6.8
2017-May-18 07:31N 35°34' E 139°53'510.0
2017-May-18 07:00N 35°30' E 139°49'5 9.6
2017-May-18 06:31N 35°27' E 139°45'5 9.6
2017-May-18 06:00N 35°23' E 139°41'2 3.0
2017-May-18 05:28N 35°24' E 139°40'0 0.0
2017-May-18 04:58N 35°24' E 139°40'0 0.0
2017-May-18 04:28N 35°24' E 139°40'0 0.0
2017-May-18 03:58N 35°24' E 139°40'0 0.0
2017-May-18 03:28N 35°24' E 139°40'0 0.0
2017-May-18 02:58N 35°24' E 139°40'0 0.0
2017-May-18 02:28N 35°24' E 139°40'0 0.0
2017-May-18 01:58N 35°24' E 139°40'0 0.0
2017-May-18 01:25N 35°24' E 139°40'0 0.0
2017-May-18 00:58N 35°24' E 139°40'0 0.0
2017-May-18 00:28N 35°24' E 139°40'0 0.0
2017-May-17 23:58N 35°24' E 139°40'0 0.3
2017-May-17 23:31N 35°24' E 139°39'2 3.5
2017-May-17 23:01N 35°24' E 139°41'611.9
2017-May-17 22:31N 35°27' E 139°47'611.6
2017-May-17 22:01N 35°30' E 139°53'4 3.9
2017-May-17 20:52N 35°31' E 139°59'0 0.1
2017-May-17 20:16N 35°31' E 139°59'0 0.1
2017-May-17 19:34N 35°31' E 139°59'0 0.0
2017-May-17 19:22N 35°31' E 139°59'0 0.0
2017-May-17 18:58N 35°31' E 139°59'0 0.0
2017-May-17 18:28N 35°31' E 139°59'0 0.0
2017-May-17 17:31N 35°31' E 139°59'0 0.0
2017-May-17 17:28N 35°31' E 139°59'0 0.0
2017-May-17 16:58N 35°31' E 139°59'0 0.3
2017-May-17 16:30N 35°31' E 139°59'3 5.8
2017-May-17 15:59N 35°31' E 140°02'0 0.0
2017-May-17 06:35N 35°31' E 140°02'0 0.0
2017-May-17 06:30N 35°31' E 140°02'0 0.0
2017-May-17 06:00N 35°31' E 140°02'1 3.0
2017-May-17 05:30N 35°32' E 140°01'0 0.3
2017-May-17 04:49N 35°32' E 140°01'0 0.0
2017-May-17 03:52N 35°32' E 140°01'0 0.0
2017-May-17 03:16N 35°32' E 140°01'0 0.0
2017-May-17 02:58N 35°32' E 140°01'0 0.0
2017-May-17 02:10N 35°32' E 140°01'0 0.0
2017-May-17 01:52N 35°32' E 140°01'0 0.0
2017-May-17 01:19N 35°32' E 140°01'0 0.0
2017-May-17 00:55N 35°32' E 140°01'0 0.0
2017-May-17 00:28N 35°32' E 140°01'0 0.0
2017-May-16 23:43N 35°32' E 140°01'0 0.0
2017-May-16 23:28N 35°32' E 140°01'0 0.0
2017-May-16 22:52N 35°32' E 140°01'0 0.0
2017-May-16 22:28N 35°32' E 140°01'0 0.0
2017-May-16 21:58N 35°32' E 140°01'0 0.0
2017-May-16 21:25N 35°32' E 140°01'0 0.0
2017-May-16 20:58N 35°32' E 140°01'0 0.0
2017-May-16 20:25N 35°32' E 140°01'0 0.0
2017-May-16 17:58N 35°32' E 140°01'0 0.0
2017-May-16 17:28N 35°32' E 140°01'0 0.0
2017-May-16 16:58N 35°32' E 140°01'0 0.0
2017-May-16 16:28N 35°32' E 140°01'0 0.0
2017-May-16 15:55N 35°32' E 140°01'0 0.0
2017-May-16 15:28N 35°32' E 140°01'0 0.0
2017-May-16 14:58N 35°32' E 140°01'1 1.7
2017-May-16 14:30N 35°31' E 139°60'1010.0
2017-May-16 13:30N 35°30' E 139°48'2 3.7
2017-May-16 12:56N 35°32' E 139°46'0 0.0
2017-May-16 12:29N 35°32' E 139°46'0 0.0
2017-May-16 11:59N 35°32' E 139°46'0 0.0
2017-May-16 11:26N 35°32' E 139°46'0 0.0
2017-May-16 10:59N 35°32' E 139°46'0 0.0
2017-May-16 10:29N 35°32' E 139°46'0 0.0
2017-May-16 09:59N 35°32' E 139°46'0 0.0
2017-May-16 09:29N 35°32' E 139°46'0 0.0
2017-May-16 08:59N 35°32' E 139°46'0 0.0
2017-May-16 08:29N 35°32' E 139°46'0 0.0
2017-May-16 07:59N 35°32' E 139°46'0 0.0
2017-May-16 07:29N 35°32' E 139°46'3 6.4
2017-May-16 07:00N 35°29' E 139°43'3 5.5
2017-May-16 06:30N 35°28' E 139°46'3 5.6
2017-May-16 06:00N 35°29' E 139°49'0 0.0
2017-May-16 05:30N 35°29' E 139°49'0 0.1
2017-May-16 05:00N 35°29' E 139°49'0 0.2
2017-May-16 04:31N 35°29' E 139°49'510.5
2017-May-16 04:01N 35°32' E 139°54'510.6
2017-May-16 03:30N 35°36' E 139°58'4 0.7
2017-May-15 21:37N 35°40' E 139°57'1 7.0
2017-May-15 21:30N 35°40' E 139°57'4 7.1
2017-May-15 21:00N 35°37' E 139°56'0 0.8
2017-May-15 20:28N 35°36' E 139°55'0 0.0
2017-May-15 19:58N 35°36' E 139°55'0 0.0
2017-May-15 19:28N 35°36' E 139°55'0 0.0
2017-May-15 18:52N 35°36' E 139°55'0 0.0
2017-May-15 18:28N 35°36' E 139°55'0 0.0
2017-May-15 17:55N 35°36' E 139°55'0 0.1
2017-May-15 17:28N 35°36' E 139°55'0 0.0
2017-May-15 16:55N 35°36' E 139°55'0 0.0
2017-May-15 16:28N 35°36' E 139°55'0 0.0
2017-May-15 15:52N 35°36' E 139°55'0 0.1
2017-May-15 15:28N 35°36' E 139°55'0 0.2
2017-May-15 14:59N 35°36' E 139°55'10 9.9
2017-May-15 14:00N 35°29' E 139°48'510.4
2017-May-15 13:30N 35°25' E 139°43'3 6.3
2017-May-15 13:00N 35°24' E 139°39'0 0.1
2017-May-15 12:30N 35°24' E 139°40'0 0.0
2017-May-15 12:00N 35°24' E 139°40'0 0.0
2017-May-15 11:30N 35°24' E 139°40'0 0.0
2017-May-15 11:00N 35°24' E 139°40'0 0.0
2017-May-15 10:30N 35°24' E 139°40'0 0.0
2017-May-15 10:00N 35°24' E 139°40'0 0.0
2017-May-15 09:30N 35°24' E 139°40'0 0.0
2017-May-15 09:00N 35°24' E 139°40'0 0.0
2017-May-15 08:30N 35°24' E 139°40'0 0.0
2017-May-15 08:00N 35°24' E 139°40'0 0.0
2017-May-15 07:30N 35°24' E 139°40'0 0.0
2017-May-15 07:00N 35°24' E 139°40'1 2.7
2017-May-15 06:30N 35°23' E 139°40'0 0.6
2017-May-15 06:00N 35°23' E 139°41'0 0.0
2017-May-15 05:30N 35°23' E 139°41'0 0.0
2017-May-15 05:00N 35°23' E 139°41'2 3.0
2017-May-15 04:30N 35°24' E 139°42'510.4
2017-May-15 04:00N 35°27' E 139°47'511.0
2017-May-15 03:30N 35°31' E 139°52'611.2
2017-May-15 03:00N 35°35' E 139°56'5 0.9
2017-May-14 21:41N 35°40' E 139°57'2 8.0
2017-May-14 21:30N 35°39' E 139°58'4 7.3
2017-May-14 21:00N 35°37' E 139°55'0 0.4
2017-May-14 20:29N 35°36' E 139°55'0 0.0
2017-May-14 19:56N 35°36' E 139°55'0 0.0
2017-May-14 19:20N 35°36' E 139°55'0 0.0
2017-May-14 18:59N 35°36' E 139°55'0 0.0
2017-May-14 18:29N 35°36' E 139°55'0 0.0
2017-May-14 17:32N 35°36' E 139°55'0 0.0
2017-May-14 17:29N 35°36' E 139°55'0 0.0
2017-May-14 16:20N 35°36' E 139°55'0 0.0
2017-May-14 15:50N 35°36' E 139°55'  

Dump ship's entire track history